sensor_id;sensor_type;location;lat;lon;timestamp;temperature;humidity
29939;DHT22;16799;50.844;5.304;2023-08-12T00:01:49;21.90;99.90
29939;DHT22;16799;50.844;5.304;2023-08-12T00:04:15;21.90;99.90
29939;DHT22;16799;50.844;5.304;2023-08-12T00:06:42;21.70;99.90
29939;DHT22;16799;50.844;5.304;2023-08-12T00:09:08;21.80;99.90
29939;DHT22;16799;50.844;5.304;2023-08-12T00:11:35;21.80;99.90
29939;DHT22;16799;50.844;5.304;2023-08-12T00:14:01;22.00;99.90
29939;DHT22;16799;50.844;5.304;2023-08-12T00:16:26;22.10;99.90
29939;DHT22;16799;50.844;5.304;2023-08-12T00:18:52;22.00;99.90
29939;DHT22;16799;50.844;5.304;2023-08-12T00:21:18;21.90;99.90
29939;DHT22;16799;50.844;5.304;2023-08-12T00:23:43;21.90;99.90
29939;DHT22;16799;50.844;5.304;2023-08-12T00:26:10;21.90;99.90
29939;DHT22;16799;50.844;5.304;2023-08-12T00:28:36;22.00;99.90
29939;DHT22;16799;50.844;5.304;2023-08-12T00:31:02;22.00;99.90
29939;DHT22;16799;50.844;5.304;2023-08-12T00:33:28;21.90;99.90
29939;DHT22;16799;50.844;5.304;2023-08-12T00:35:53;21.80;99.90
29939;DHT22;16799;50.844;5.304;2023-08-12T00:38:19;21.90;99.90
29939;DHT22;16799;50.844;5.304;2023-08-12T00:40:45;21.90;99.90
29939;DHT22;16799;50.844;5.304;2023-08-12T00:43:11;21.80;99.90
29939;DHT22;16799;50.844;5.304;2023-08-12T00:45:37;21.80;99.90
29939;DHT22;16799;50.844;5.304;2023-08-12T00:48:06;21.80;99.90
29939;DHT22;16799;50.844;5.304;2023-08-12T00:50:32;21.90;99.90
29939;DHT22;16799;50.844;5.304;2023-08-12T00:52:58;22.00;99.90
29939;DHT22;16799;50.844;5.304;2023-08-12T00:55:24;22.10;99.90
29939;DHT22;16799;50.844;5.304;2023-08-12T00:57:50;22.20;99.90
29939;DHT22;16799;50.844;5.304;2023-08-12T01:00:16;22.20;99.90
29939;DHT22;16799;50.844;5.304;2023-08-12T01:02:46;22.10;99.90
29939;DHT22;16799;50.844;5.304;2023-08-12T01:05:14;22.10;99.90
29939;DHT22;16799;50.844;5.304;2023-08-12T01:07:40;22.10;99.90
29939;DHT22;16799;50.844;5.304;2023-08-12T01:10:06;22.10;99.90
29939;DHT22;16799;50.844;5.304;2023-08-12T01:12:37;22.30;99.90
29939;DHT22;16799;50.844;5.304;2023-08-12T01:15:17;22.40;99.90
29939;DHT22;16799;50.844;5.304;2023-08-12T01:17:47;22.30;99.90
29939;DHT22;16799;50.844;5.304;2023-08-12T01:20:19;22.40;99.90
29939;DHT22;16799;50.844;5.304;2023-08-12T01:23:13;22.50;99.90
29939;DHT22;16799;50.844;5.304;2023-08-12T01:25:38;22.50;99.90
29939;DHT22;16799;50.844;5.304;2023-08-12T01:28:04;22.50;99.90
29939;DHT22;16799;50.844;5.304;2023-08-12T01:30:31;22.60;99.90
29939;DHT22;16799;50.844;5.304;2023-08-12T01:33:05;22.70;99.90
29939;DHT22;16799;50.844;5.304;2023-08-12T01:35:38;22.70;99.90
29939;DHT22;16799;50.844;5.304;2023-08-12T01:38:06;22.70;99.90
29939;DHT22;16799;50.844;5.304;2023-08-12T01:40:33;22.70;99.90
29939;DHT22;16799;50.844;5.304;2023-08-12T01:43:01;22.60;99.90
29939;DHT22;16799;50.844;5.304;2023-08-12T01:45:30;22.50;99.90
29939;DHT22;16799;50.844;5.304;2023-08-12T01:47:56;22.60;99.90
29939;DHT22;16799;50.844;5.304;2023-08-12T01:50:21;22.50;99.90
29939;DHT22;16799;50.844;5.304;2023-08-12T01:52:47;22.30;99.90
29939;DHT22;16799;50.844;5.304;2023-08-12T01:55:13;22.30;99.90
29939;DHT22;16799;50.844;5.304;2023-08-12T01:57:38;22.30;99.90
29939;DHT22;16799;50.844;5.304;2023-08-12T02:00:05;22.30;99.90
29939;DHT22;16799;50.844;5.304;2023-08-12T02:02:31;22.40;99.90
29939;DHT22;16799;50.844;5.304;2023-08-12T02:04:57;22.20;99.90
29939;DHT22;16799;50.844;5.304;2023-08-12T02:07:22;22.40;99.90
29939;DHT22;16799;50.844;5.304;2023-08-12T02:09:48;22.40;99.90
29939;DHT22;16799;50.844;5.304;2023-08-12T02:12:14;22.30;99.90
29939;DHT22;16799;50.844;5.304;2023-08-12T02:14:40;22.20;99.90
29939;DHT22;16799;50.844;5.304;2023-08-12T02:17:05;22.20;99.90
29939;DHT22;16799;50.844;5.304;2023-08-12T02:19:34;22.20;99.90
29939;DHT22;16799;50.844;5.304;2023-08-12T02:22:00;22.20;99.90
29939;DHT22;16799;50.844;5.304;2023-08-12T02:24:27;22.10;99.90
29939;DHT22;16799;50.844;5.304;2023-08-12T02:26:53;22.20;99.90
29939;DHT22;16799;50.844;5.304;2023-08-12T02:29:19;22.10;99.90
29939;DHT22;16799;50.844;5.304;2023-08-12T02:31:44;22.20;99.90
29939;DHT22;16799;50.844;5.304;2023-08-12T02:34:10;22.10;99.90
29939;DHT22;16799;50.844;5.304;2023-08-12T02:36:36;22.20;99.90
29939;DHT22;16799;50.844;5.304;2023-08-12T02:39:01;22.50;99.90
29939;DHT22;16799;50.844;5.304;2023-08-12T02:41:27;22.50;99.90
29939;DHT22;16799;50.844;5.304;2023-08-12T02:43:53;22.40;99.90
29939;DHT22;16799;50.844;5.304;2023-08-12T02:46:18;22.40;99.90
29939;DHT22;16799;50.844;5.304;2023-08-12T02:48:45;22.40;99.90
29939;DHT22;16799;50.844;5.304;2023-08-12T02:51:13;22.30;99.90
29939;DHT22;16799;50.844;5.304;2023-08-12T02:53:38;22.10;99.90
29939;DHT22;16799;50.844;5.304;2023-08-12T02:56:04;22.20;99.90
29939;DHT22;16799;50.844;5.304;2023-08-12T02:58:30;22.30;99.90
29939;DHT22;16799;50.844;5.304;2023-08-12T03:00:55;22.40;99.90
29939;DHT22;16799;50.844;5.304;2023-08-12T03:03:21;22.40;99.90
29939;DHT22;16799;50.844;5.304;2023-08-12T03:05:49;22.40;99.90
29939;DHT22;16799;50.844;5.304;2023-08-12T03:08:15;22.40;99.90
29939;DHT22;16799;50.844;5.304;2023-08-12T03:10:41;22.50;99.90
29939;DHT22;16799;50.844;5.304;2023-08-12T03:13:07;22.60;99.90
29939;DHT22;16799;50.844;5.304;2023-08-12T03:15:32;22.60;99.90
29939;DHT22;16799;50.844;5.304;2023-08-12T03:17:58;22.40;99.90
29939;DHT22;16799;50.844;5.304;2023-08-12T03:20:24;22.40;99.90
29939;DHT22;16799;50.844;5.304;2023-08-12T03:22:49;22.50;99.90
29939;DHT22;16799;50.844;5.304;2023-08-12T03:25:15;22.50;99.90
29939;DHT22;16799;50.844;5.304;2023-08-12T03:27:41;22.40;99.90
29939;DHT22;16799;50.844;5.304;2023-08-12T03:30:07;22.40;99.90
29939;DHT22;16799;50.844;5.304;2023-08-12T03:32:33;22.40;99.90
29939;DHT22;16799;50.844;5.304;2023-08-12T03:34:59;22.30;99.90
29939;DHT22;16799;50.844;5.304;2023-08-12T03:37:25;22.50;99.90
29939;DHT22;16799;50.844;5.304;2023-08-12T03:39:51;22.40;99.90
29939;DHT22;16799;50.844;5.304;2023-08-12T03:42:17;22.30;99.90
29939;DHT22;16799;50.844;5.304;2023-08-12T03:44:43;22.00;99.90
29939;DHT22;16799;50.844;5.304;2023-08-12T03:47:09;22.00;99.90
29939;DHT22;16799;50.844;5.304;2023-08-12T03:49:35;21.80;99.90
29939;DHT22;16799;50.844;5.304;2023-08-12T03:52:00;21.70;99.90
29939;DHT22;16799;50.844;5.304;2023-08-12T03:54:26;21.70;99.90
29939;DHT22;16799;50.844;5.304;2023-08-12T03:56:51;21.70;99.90
29939;DHT22;16799;50.844;5.304;2023-08-12T03:59:17;21.90;99.90
29939;DHT22;16799;50.844;5.304;2023-08-12T04:01:43;21.80;99.90
29939;DHT22;16799;50.844;5.304;2023-08-12T04:04:08;21.80;99.90
29939;DHT22;16799;50.844;5.304;2023-08-12T04:06:34;21.80;99.90
29939;DHT22;16799;50.844;5.304;2023-08-12T04:09:00;21.70;99.90
29939;DHT22;16799;50.844;5.304;2023-08-12T04:11:25;21.60;99.90
29939;DHT22;16799;50.844;5.304;2023-08-12T04:13:51;21.60;99.90
29939;DHT22;16799;50.844;5.304;2023-08-12T04:16:16;21.50;99.90
29939;DHT22;16799;50.844;5.304;2023-08-12T04:18:42;21.20;99.90
29939;DHT22;16799;50.844;5.304;2023-08-12T04:21:08;21.10;99.90
29939;DHT22;16799;50.844;5.304;2023-08-12T04:23:34;21.10;99.90
29939;DHT22;16799;50.844;5.304;2023-08-12T04:25:59;21.10;99.90
29939;DHT22;16799;50.844;5.304;2023-08-12T04:28:25;21.20;99.90
29939;DHT22;16799;50.844;5.304;2023-08-12T04:30:51;21.30;99.90
29939;DHT22;16799;50.844;5.304;2023-08-12T04:33:18;21.40;99.90
29939;DHT22;16799;50.844;5.304;2023-08-12T04:35:45;21.40;99.90
29939;DHT22;16799;50.844;5.304;2023-08-12T04:38:11;21.20;99.90
29939;DHT22;16799;50.844;5.304;2023-08-12T04:40:40;21.20;99.90
29939;DHT22;16799;50.844;5.304;2023-08-12T04:43:07;21.00;99.90
29939;DHT22;16799;50.844;5.304;2023-08-12T04:45:33;21.10;99.90
29939;DHT22;16799;50.844;5.304;2023-08-12T04:47:58;21.00;99.90
29939;DHT22;16799;50.844;5.304;2023-08-12T04:50:25;20.80;99.90
29939;DHT22;16799;50.844;5.304;2023-08-12T04:52:50;20.90;99.90
29939;DHT22;16799;50.844;5.304;2023-08-12T04:55:16;20.80;99.90
29939;DHT22;16799;50.844;5.304;2023-08-12T04:57:42;20.80;99.90
29939;DHT22;16799;50.844;5.304;2023-08-12T05:00:08;20.80;99.90
29939;DHT22;16799;50.844;5.304;2023-08-12T05:02:35;20.90;99.90
29939;DHT22;16799;50.844;5.304;2023-08-12T05:05:01;20.90;99.90
29939;DHT22;16799;50.844;5.304;2023-08-12T05:07:27;20.80;99.90
29939;DHT22;16799;50.844;5.304;2023-08-12T05:09:53;20.80;99.90
29939;DHT22;16799;50.844;5.304;2023-08-12T05:12:19;20.70;99.90
29939;DHT22;16799;50.844;5.304;2023-08-12T05:14:45;20.70;99.90
29939;DHT22;16799;50.844;5.304;2023-08-12T05:17:10;20.80;99.90
29939;DHT22;16799;50.844;5.304;2023-08-12T05:19:36;20.80;99.90
29939;DHT22;16799;50.844;5.304;2023-08-12T05:22:02;20.90;99.90
29939;DHT22;16799;50.844;5.304;2023-08-12T05:24:28;20.90;99.90
29939;DHT22;16799;50.844;5.304;2023-08-12T05:26:53;20.80;99.90
29939;DHT22;16799;50.844;5.304;2023-08-12T05:29:19;20.60;99.90
29939;DHT22;16799;50.844;5.304;2023-08-12T05:31:44;20.50;99.90
29939;DHT22;16799;50.844;5.304;2023-08-12T05:34:10;20.50;99.90
29939;DHT22;16799;50.844;5.304;2023-08-12T05:36:36;20.60;99.90
29939;DHT22;16799;50.844;5.304;2023-08-12T05:39:02;20.50;99.90
29939;DHT22;16799;50.844;5.304;2023-08-12T05:41:28;20.60;99.90
29939;DHT22;16799;50.844;5.304;2023-08-12T05:43:54;20.50;99.90
29939;DHT22;16799;50.844;5.304;2023-08-12T05:46:20;20.60;99.90
29939;DHT22;16799;50.844;5.304;2023-08-12T05:48:46;20.70;99.90
29939;DHT22;16799;50.844;5.304;2023-08-12T05:51:11;20.80;99.90
29939;DHT22;16799;50.844;5.304;2023-08-12T05:53:37;21.00;99.90
29939;DHT22;16799;50.844;5.304;2023-08-12T05:56:03;20.80;99.90
29939;DHT22;16799;50.844;5.304;2023-08-12T05:58:29;20.70;99.90
29939;DHT22;16799;50.844;5.304;2023-08-12T06:00:55;20.70;99.90
29939;DHT22;16799;50.844;5.304;2023-08-12T06:03:20;20.60;99.90
29939;DHT22;16799;50.844;5.304;2023-08-12T06:05:46;20.70;99.90
29939;DHT22;16799;50.844;5.304;2023-08-12T06:08:13;20.70;99.90
29939;DHT22;16799;50.844;5.304;2023-08-12T06:10:38;20.70;99.90
29939;DHT22;16799;50.844;5.304;2023-08-12T06:13:04;20.70;99.90
29939;DHT22;16799;50.844;5.304;2023-08-12T06:15:30;20.70;99.90
29939;DHT22;16799;50.844;5.304;2023-08-12T06:17:56;20.70;99.90
29939;DHT22;16799;50.844;5.304;2023-08-12T06:20:23;20.60;99.90
29939;DHT22;16799;50.844;5.304;2023-08-12T06:22:49;20.70;99.90
29939;DHT22;16799;50.844;5.304;2023-08-12T06:25:15;20.70;99.90
29939;DHT22;16799;50.844;5.304;2023-08-12T06:27:41;20.70;99.90
29939;DHT22;16799;50.844;5.304;2023-08-12T06:30:07;20.80;99.90
29939;DHT22;16799;50.844;5.304;2023-08-12T06:32:34;20.80;99.90
29939;DHT22;16799;50.844;5.304;2023-08-12T06:35:00;20.80;99.90
29939;DHT22;16799;50.844;5.304;2023-08-12T06:37:26;20.70;99.90
29939;DHT22;16799;50.844;5.304;2023-08-12T06:39:51;20.70;99.90
29939;DHT22;16799;50.844;5.304;2023-08-12T06:42:17;20.80;99.90
29939;DHT22;16799;50.844;5.304;2023-08-12T06:44:42;20.80;99.90
29939;DHT22;16799;50.844;5.304;2023-08-12T06:47:08;20.80;99.90
29939;DHT22;16799;50.844;5.304;2023-08-12T06:49:34;20.70;99.90
29939;DHT22;16799;50.844;5.304;2023-08-12T06:51:59;20.70;99.90
29939;DHT22;16799;50.844;5.304;2023-08-12T06:54:25;20.70;99.90
29939;DHT22;16799;50.844;5.304;2023-08-12T06:56:51;20.70;99.90
29939;DHT22;16799;50.844;5.304;2023-08-12T06:59:16;20.60;99.90
29939;DHT22;16799;50.844;5.304;2023-08-12T07:01:42;20.60;99.90
29939;DHT22;16799;50.844;5.304;2023-08-12T07:04:08;20.70;99.90
29939;DHT22;16799;50.844;5.304;2023-08-12T07:06:34;20.80;99.90
29939;DHT22;16799;50.844;5.304;2023-08-12T07:08:59;20.80;99.90
29939;DHT22;16799;50.844;5.304;2023-08-12T07:11:25;20.80;99.90
29939;DHT22;16799;50.844;5.304;2023-08-12T07:13:51;20.70;99.90
29939;DHT22;16799;50.844;5.304;2023-08-12T07:16:16;20.80;99.90
29939;DHT22;16799;50.844;5.304;2023-08-12T07:18:42;20.80;99.90
29939;DHT22;16799;50.844;5.304;2023-08-12T07:21:08;20.80;99.90
29939;DHT22;16799;50.844;5.304;2023-08-12T07:23:33;20.80;99.90
29939;DHT22;16799;50.844;5.304;2023-08-12T07:25:59;20.80;99.90
29939;DHT22;16799;50.844;5.304;2023-08-12T07:28:25;20.70;99.90
29939;DHT22;16799;50.844;5.304;2023-08-12T07:30:50;20.80;99.90
29939;DHT22;16799;50.844;5.304;2023-08-12T07:33:17;21.00;99.90
29939;DHT22;16799;50.844;5.304;2023-08-12T07:35:43;21.10;99.90
29939;DHT22;16799;50.844;5.304;2023-08-12T07:38:09;20.90;99.90
29939;DHT22;16799;50.844;5.304;2023-08-12T07:40:34;20.90;99.90
29939;DHT22;16799;50.844;5.304;2023-08-12T07:43:00;21.00;99.90
29939;DHT22;16799;50.844;5.304;2023-08-12T07:45:26;21.10;99.90
29939;DHT22;16799;50.844;5.304;2023-08-12T07:47:51;21.20;99.90
29939;DHT22;16799;50.844;5.304;2023-08-12T07:50:17;21.30;99.90
29939;DHT22;16799;50.844;5.304;2023-08-12T07:52:43;21.50;99.90
29939;DHT22;16799;50.844;5.304;2023-08-12T07:55:09;21.60;99.90
29939;DHT22;16799;50.844;5.304;2023-08-12T07:57:34;21.70;99.90
29939;DHT22;16799;50.844;5.304;2023-08-12T08:00:00;21.70;99.90
29939;DHT22;16799;50.844;5.304;2023-08-12T08:02:26;21.70;99.90
29939;DHT22;16799;50.844;5.304;2023-08-12T08:04:52;21.80;99.90
29939;DHT22;16799;50.844;5.304;2023-08-12T08:07:17;21.80;99.90
29939;DHT22;16799;50.844;5.304;2023-08-12T08:09:44;21.80;99.90
29939;DHT22;16799;50.844;5.304;2023-08-12T08:12:10;21.90;99.90
29939;DHT22;16799;50.844;5.304;2023-08-12T08:14:36;21.90;99.90
29939;DHT22;16799;50.844;5.304;2023-08-12T08:17:02;21.90;99.90
29939;DHT22;16799;50.844;5.304;2023-08-12T08:19:29;21.90;99.90
29939;DHT22;16799;50.844;5.304;2023-08-12T08:21:56;21.70;99.90
29939;DHT22;16799;50.844;5.304;2023-08-12T08:24:21;21.80;99.90
29939;DHT22;16799;50.844;5.304;2023-08-12T08:26:47;21.70;99.90
29939;DHT22;16799;50.844;5.304;2023-08-12T08:29:13;21.60;99.90
29939;DHT22;16799;50.844;5.304;2023-08-12T08:31:39;21.60;99.90
29939;DHT22;16799;50.844;5.304;2023-08-12T08:34:05;21.50;99.90
29939;DHT22;16799;50.844;5.304;2023-08-12T08:36:31;21.60;99.90
29939;DHT22;16799;50.844;5.304;2023-08-12T08:38:57;21.60;99.90
29939;DHT22;16799;50.844;5.304;2023-08-12T08:41:24;21.80;99.90
29939;DHT22;16799;50.844;5.304;2023-08-12T08:43:50;22.00;99.90
29939;DHT22;16799;50.844;5.304;2023-08-12T08:46:19;22.00;99.90
29939;DHT22;16799;50.844;5.304;2023-08-12T08:48:47;22.10;99.90
29939;DHT22;16799;50.844;5.304;2023-08-12T08:51:14;22.20;99.90
29939;DHT22;16799;50.844;5.304;2023-08-12T08:53:40;22.10;99.90
29939;DHT22;16799;50.844;5.304;2023-08-12T08:56:07;22.20;99.90
29939;DHT22;16799;50.844;5.304;2023-08-12T08:58:33;22.20;99.90
29939;DHT22;16799;50.844;5.304;2023-08-12T09:00:59;22.40;99.90
29939;DHT22;16799;50.844;5.304;2023-08-12T09:03:27;22.60;99.90
29939;DHT22;16799;50.844;5.304;2023-08-12T09:05:55;22.50;99.90
29939;DHT22;16799;50.844;5.304;2023-08-12T09:08:22;22.40;99.90
29939;DHT22;16799;50.844;5.304;2023-08-12T09:10:48;22.30;99.90
29939;DHT22;16799;50.844;5.304;2023-08-12T09:13:14;22.20;99.90
29939;DHT22;16799;50.844;5.304;2023-08-12T09:15:41;22.10;99.90
29939;DHT22;16799;50.844;5.304;2023-08-12T09:18:07;21.90;99.90
29939;DHT22;16799;50.844;5.304;2023-08-12T09:20:33;21.70;99.90
29939;DHT22;16799;50.844;5.304;2023-08-12T09:22:59;21.70;99.90
29939;DHT22;16799;50.844;5.304;2023-08-12T09:25:26;21.50;99.90
29939;DHT22;16799;50.844;5.304;2023-08-12T09:27:54;21.40;99.90
29939;DHT22;16799;50.844;5.304;2023-08-12T09:30:21;21.30;99.90
29939;DHT22;16799;50.844;5.304;2023-08-12T09:33:01;21.00;99.90
29939;DHT22;16799;50.844;5.304;2023-08-12T09:35:33;20.90;99.90
29939;DHT22;16799;50.844;5.304;2023-08-12T09:38:00;20.80;99.90
29939;DHT22;16799;50.844;5.304;2023-08-12T09:40:26;20.70;99.90
29939;DHT22;16799;50.844;5.304;2023-08-12T09:42:52;20.80;99.90
29939;DHT22;16799;50.844;5.304;2023-08-12T09:45:18;20.80;99.90
29939;DHT22;16799;50.844;5.304;2023-08-12T09:47:46;20.70;99.90
29939;DHT22;16799;50.844;5.304;2023-08-12T09:50:11;20.60;99.90
29939;DHT22;16799;50.844;5.304;2023-08-12T09:52:39;20.70;99.90
29939;DHT22;16799;50.844;5.304;2023-08-12T09:55:07;20.80;99.90
29939;DHT22;16799;50.844;5.304;2023-08-12T09:57:35;20.90;99.90
29939;DHT22;16799;50.844;5.304;2023-08-12T10:00:02;21.10;99.90
29939;DHT22;16799;50.844;5.304;2023-08-12T10:02:29;21.30;99.90
29939;DHT22;16799;50.844;5.304;2023-08-12T10:04:56;21.60;99.90
29939;DHT22;16799;50.844;5.304;2023-08-12T10:07:24;21.60;99.90
29939;DHT22;16799;50.844;5.304;2023-08-12T10:09:50;21.80;99.90
29939;DHT22;16799;50.844;5.304;2023-08-12T10:12:17;21.90;99.90
29939;DHT22;16799;50.844;5.304;2023-08-12T10:14:43;22.00;99.90
29939;DHT22;16799;50.844;5.304;2023-08-12T10:17:09;22.00;99.90
29939;DHT22;16799;50.844;5.304;2023-08-12T10:19:36;22.10;99.90
29939;DHT22;16799;50.844;5.304;2023-08-12T10:22:03;22.10;99.90
29939;DHT22;16799;50.844;5.304;2023-08-12T10:24:29;22.00;99.90
29939;DHT22;16799;50.844;5.304;2023-08-12T10:26:55;21.70;99.90
29939;DHT22;16799;50.844;5.304;2023-08-12T10:29:24;21.40;99.90
29939;DHT22;16799;50.844;5.304;2023-08-12T10:31:50;21.40;99.90
29939;DHT22;16799;50.844;5.304;2023-08-12T10:34:24;21.50;99.90
29939;DHT22;16799;50.844;5.304;2023-08-12T10:36:55;21.50;99.90
29939;DHT22;16799;50.844;5.304;2023-08-12T10:39:27;21.40;99.90
29939;DHT22;16799;50.844;5.304;2023-08-12T10:41:56;21.20;99.90
29939;DHT22;16799;50.844;5.304;2023-08-12T10:45:11;21.00;99.90
29939;DHT22;16799;50.844;5.304;2023-08-12T10:47:12;21.00;99.90
29939;DHT22;16799;50.844;5.304;2023-08-12T10:49:48;21.00;99.90
29939;DHT22;16799;50.844;5.304;2023-08-12T10:52:30;21.20;99.90
29939;DHT22;16799;50.844;5.304;2023-08-12T10:55:22;21.50;99.90
29939;DHT22;16799;50.844;5.304;2023-08-12T10:57:50;21.60;99.90
29939;DHT22;16799;50.844;5.304;2023-08-12T11:00:17;21.50;99.90
29939;DHT22;16799;50.844;5.304;2023-08-12T11:02:49;21.40;99.90
29939;DHT22;16799;50.844;5.304;2023-08-12T11:05:16;21.20;99.90
29939;DHT22;16799;50.844;5.304;2023-08-12T11:07:49;21.10;99.90
29939;DHT22;16799;50.844;5.304;2023-08-12T11:10:25;21.00;99.90
29939;DHT22;16799;50.844;5.304;2023-08-12T11:15:17;20.80;99.90
29939;DHT22;16799;50.844;5.304;2023-08-12T11:17:46;20.90;99.90
29939;DHT22;16799;50.844;5.304;2023-08-12T11:20:13;21.00;99.90
29939;DHT22;16799;50.844;5.304;2023-08-12T11:22:43;21.30;99.90
29939;DHT22;16799;50.844;5.304;2023-08-12T11:25:11;21.70;99.90
29939;DHT22;16799;50.844;5.304;2023-08-12T11:27:47;22.00;99.90
29939;DHT22;16799;50.844;5.304;2023-08-12T11:30:18;22.00;99.90
29939;DHT22;16799;50.844;5.304;2023-08-12T11:32:46;22.50;99.90
29939;DHT22;16799;50.844;5.304;2023-08-12T11:35:14;23.60;99.90
29939;DHT22;16799;50.844;5.304;2023-08-12T11:37:41;24.20;99.90
29939;DHT22;16799;50.844;5.304;2023-08-12T11:40:08;24.30;99.90
29939;DHT22;16799;50.844;5.304;2023-08-12T11:42:41;24.60;99.90
29939;DHT22;16799;50.844;5.304;2023-08-12T11:45:07;25.00;99.90
29939;DHT22;16799;50.844;5.304;2023-08-12T11:47:38;25.30;99.90
29939;DHT22;16799;50.844;5.304;2023-08-12T11:50:08;25.70;99.90
29939;DHT22;16799;50.844;5.304;2023-08-12T11:52:38;25.90;99.90
29939;DHT22;16799;50.844;5.304;2023-08-12T11:55:07;26.00;99.90
29939;DHT22;16799;50.844;5.304;2023-08-12T11:57:33;26.20;99.90
29939;DHT22;16799;50.844;5.304;2023-08-12T12:00:07;26.20;99.90
29939;DHT22;16799;50.844;5.304;2023-08-12T12:02:53;26.60;99.90
29939;DHT22;16799;50.844;5.304;2023-08-12T12:05:28;27.60;99.90
29939;DHT22;16799;50.844;5.304;2023-08-12T12:07:55;28.20;99.90
29939;DHT22;16799;50.844;5.304;2023-08-12T12:10:29;28.00;99.90
29939;DHT22;16799;50.844;5.304;2023-08-12T12:12:56;26.90;99.90
29939;DHT22;16799;50.844;5.304;2023-08-12T12:15:22;25.40;99.90
29939;DHT22;16799;50.844;5.304;2023-08-12T12:17:50;25.60;99.90
29939;DHT22;16799;50.844;5.304;2023-08-12T12:20:16;25.90;99.90
29939;DHT22;16799;50.844;5.304;2023-08-12T12:22:43;26.80;99.90
29939;DHT22;16799;50.844;5.304;2023-08-12T12:25:11;26.70;99.90
29939;DHT22;16799;50.844;5.304;2023-08-12T12:27:41;27.30;99.90
29939;DHT22;16799;50.844;5.304;2023-08-12T12:30:08;27.50;99.90
29939;DHT22;16799;50.844;5.304;2023-08-12T12:32:35;27.80;99.90
29939;DHT22;16799;50.844;5.304;2023-08-12T12:35:01;26.90;99.90
29939;DHT22;16799;50.844;5.304;2023-08-12T12:37:27;27.10;99.90
29939;DHT22;16799;50.844;5.304;2023-08-12T12:39:53;27.70;99.90
29939;DHT22;16799;50.844;5.304;2023-08-12T12:42:18;27.10;99.90
29939;DHT22;16799;50.844;5.304;2023-08-12T12:44:44;27.80;99.90
29939;DHT22;16799;50.844;5.304;2023-08-12T12:47:10;28.30;99.90
29939;DHT22;16799;50.844;5.304;2023-08-12T12:49:38;28.00;99.90
29939;DHT22;16799;50.844;5.304;2023-08-12T12:52:04;27.10;99.90
29939;DHT22;16799;50.844;5.304;2023-08-12T12:54:30;27.90;99.90
29939;DHT22;16799;50.844;5.304;2023-08-12T12:56:56;28.50;94.90
29939;DHT22;16799;50.844;5.304;2023-08-12T12:59:23;28.90;95.10
29939;DHT22;16799;50.844;5.304;2023-08-12T13:01:48;28.80;94.80
29939;DHT22;16799;50.844;5.304;2023-08-12T13:04:14;29.00;96.70
29939;DHT22;16799;50.844;5.304;2023-08-12T13:06:40;29.30;92.00
29939;DHT22;16799;50.844;5.304;2023-08-12T13:09:06;29.00;94.10
29939;DHT22;16799;50.844;5.304;2023-08-12T13:11:33;28.80;93.60
29939;DHT22;16799;50.844;5.304;2023-08-12T13:14:02;28.80;90.50
29939;DHT22;16799;50.844;5.304;2023-08-12T13:16:28;28.60;92.20
29939;DHT22;16799;50.844;5.304;2023-08-12T13:18:54;29.00;91.30
29939;DHT22;16799;50.844;5.304;2023-08-12T13:21:20;29.30;91.50
29939;DHT22;16799;50.844;5.304;2023-08-12T13:23:46;29.20;92.10
29939;DHT22;16799;50.844;5.304;2023-08-12T13:26:11;29.60;91.10
29939;DHT22;16799;50.844;5.304;2023-08-12T13:28:37;29.70;92.80
29939;DHT22;16799;50.844;5.304;2023-08-12T13:31:03;30.10;90.70
29939;DHT22;16799;50.844;5.304;2023-08-12T13:33:28;29.90;90.30
29939;DHT22;16799;50.844;5.304;2023-08-12T13:35:54;30.10;91.00
29939;DHT22;16799;50.844;5.304;2023-08-12T13:38:20;30.80;87.70
29939;DHT22;16799;50.844;5.304;2023-08-12T13:40:45;31.10;86.40
29939;DHT22;16799;50.844;5.304;2023-08-12T13:43:11;30.60;83.50
29939;DHT22;16799;50.844;5.304;2023-08-12T13:45:37;30.60;88.20
29939;DHT22;16799;50.844;5.304;2023-08-12T13:48:03;30.60;90.30
29939;DHT22;16799;50.844;5.304;2023-08-12T13:50:28;30.70;89.80
29939;DHT22;16799;50.844;5.304;2023-08-12T13:52:54;29.90;92.50
29939;DHT22;16799;50.844;5.304;2023-08-12T13:55:20;30.40;92.10
29939;DHT22;16799;50.844;5.304;2023-08-12T13:57:45;29.10;93.40
29939;DHT22;16799;50.844;5.304;2023-08-12T14:00:11;29.10;95.70
29939;DHT22;16799;50.844;5.304;2023-08-12T14:02:39;28.10;98.20
29939;DHT22;16799;50.844;5.304;2023-08-12T14:05:05;27.70;98.60
29939;DHT22;16799;50.844;5.304;2023-08-12T14:07:31;27.50;97.50
29939;DHT22;16799;50.844;5.304;2023-08-12T14:09:58;27.20;99.90
29939;DHT22;16799;50.844;5.304;2023-08-12T14:12:24;27.10;99.90
29939;DHT22;16799;50.844;5.304;2023-08-12T14:14:49;27.80;97.20
29939;DHT22;16799;50.844;5.304;2023-08-12T14:17:15;28.20;93.00
29939;DHT22;16799;50.844;5.304;2023-08-12T14:19:44;28.60;92.10
29939;DHT22;16799;50.844;5.304;2023-08-12T14:22:13;29.00;92.10
29939;DHT22;16799;50.844;5.304;2023-08-12T14:24:38;29.30;90.50
29939;DHT22;16799;50.844;5.304;2023-08-12T14:27:04;28.70;91.40
29939;DHT22;16799;50.844;5.304;2023-08-12T14:29:30;28.30;92.40
29939;DHT22;16799;50.844;5.304;2023-08-12T14:31:56;27.90;93.20
29939;DHT22;16799;50.844;5.304;2023-08-12T14:34:22;27.20;95.60
29939;DHT22;16799;50.844;5.304;2023-08-12T14:36:47;27.60;96.10
29939;DHT22;16799;50.844;5.304;2023-08-12T14:39:13;27.30;94.00
29939;DHT22;16799;50.844;5.304;2023-08-12T14:41:39;27.10;95.50
29939;DHT22;16799;50.844;5.304;2023-08-12T14:44:04;26.30;96.10
29939;DHT22;16799;50.844;5.304;2023-08-12T14:46:30;26.10;96.80
29939;DHT22;16799;50.844;5.304;2023-08-12T14:48:55;27.30;94.10
29939;DHT22;16799;50.844;5.304;2023-08-12T14:51:22;28.50;89.10
29939;DHT22;16799;50.844;5.304;2023-08-12T14:53:48;28.00;92.20
29939;DHT22;16799;50.844;5.304;2023-08-12T14:56:14;27.40;91.80
29939;DHT22;16799;50.844;5.304;2023-08-12T14:58:39;26.80;94.70
29939;DHT22;16799;50.844;5.304;2023-08-12T15:01:05;26.60;94.10
29939;DHT22;16799;50.844;5.304;2023-08-12T15:03:32;26.60;93.10
29939;DHT22;16799;50.844;5.304;2023-08-12T15:06:01;26.20;95.30
29939;DHT22;16799;50.844;5.304;2023-08-12T15:08:29;27.00;92.70
29939;DHT22;16799;50.844;5.304;2023-08-12T15:10:55;28.50;89.40
29939;DHT22;16799;50.844;5.304;2023-08-12T15:13:21;28.50;90.30
29939;DHT22;16799;50.844;5.304;2023-08-12T15:15:47;27.90;90.90
29939;DHT22;16799;50.844;5.304;2023-08-12T15:18:13;28.30;90.00
29939;DHT22;16799;50.844;5.304;2023-08-12T15:20:38;28.20;85.50
29939;DHT22;16799;50.844;5.304;2023-08-12T15:23:04;28.40;84.40
29939;DHT22;16799;50.844;5.304;2023-08-12T15:25:29;28.20;85.70
29939;DHT22;16799;50.844;5.304;2023-08-12T15:27:55;28.90;82.40
29939;DHT22;16799;50.844;5.304;2023-08-12T15:30:21;29.50;82.60